sensor_id;sensor_type;location;lat;lon;timestamp;P1;durP1;ratioP1;P2;durP2;ratioP2
72053;SDS011;59918;51.280;7.950;2023-12-20T00:00:54;7.95;;;5.28;;
72053;SDS011;59918;51.280;7.950;2023-12-20T00:03:19;5.70;;;4.63;;
72053;SDS011;59918;51.280;7.950;2023-12-20T00:05:44;8.35;;;5.45;;
72053;SDS011;59918;51.280;7.950;2023-12-20T00:08:09;6.10;;;4.97;;
72053;SDS011;59918;51.280;7.950;2023-12-20T00:10:35;8.18;;;5.68;;
72053;SDS011;59918;51.280;7.950;2023-12-20T00:13:00;7.55;;;5.90;;
72053;SDS011;59918;51.280;7.950;2023-12-20T00:15:25;7.65;;;5.82;;
72053;SDS011;59918;51.280;7.950;2023-12-20T00:17:53;9.35;;;5.35;;
72053;SDS011;59918;51.280;7.950;2023-12-20T00:20:18;10.18;;;5.40;;
72053;SDS011;59918;51.280;7.950;2023-12-20T00:22:43;7.60;;;5.60;;
72053;SDS011;59918;51.280;7.950;2023-12-20T00:25:08;8.32;;;5.22;;
72053;SDS011;59918;51.280;7.950;2023-12-20T00:27:34;5.85;;;4.43;;
72053;SDS011;59918;51.280;7.950;2023-12-20T00:29:59;10.13;;;6.20;;
72053;SDS011;59918;51.280;7.950;2023-12-20T00:32:24;7.60;;;5.72;;
72053;SDS011;59918;51.280;7.950;2023-12-20T00:34:49;9.40;;;6.15;;
72053;SDS011;59918;51.280;7.950;2023-12-20T00:37:15;10.57;;;5.82;;
72053;SDS011;59918;51.280;7.950;2023-12-20T00:39:40;7.65;;;4.85;;
72053;SDS011;59918;51.280;7.950;2023-12-20T00:42:05;7.60;;;4.78;;
72053;SDS011;59918;51.280;7.950;2023-12-20T00:44:30;5.00;;;3.90;;
72053;SDS011;59918;51.280;7.950;2023-12-20T00:46:55;5.07;;;3.80;;
72053;SDS011;59918;51.280;7.950;2023-12-20T00:49:21;6.68;;;4.22;;
72053;SDS011;59918;51.280;7.950;2023-12-20T00:51:46;4.88;;;4.00;;
72053;SDS011;59918;51.280;7.950;2023-12-20T00:54:11;6.88;;;4.30;;
72053;SDS011;59918;51.280;7.950;2023-12-20T00:56:36;8.07;;;4.20;;
72053;SDS011;59918;51.280;7.950;2023-12-20T00:59:02;7.00;;;4.25;;
72053;SDS011;59918;51.280;7.950;2023-12-20T01:01:27;6.72;;;4.60;;
72053;SDS011;59918;51.280;7.950;2023-12-20T01:03:52;4.95;;;3.70;;
72053;SDS011;59918;51.280;7.950;2023-12-20T01:06:17;3.78;;;2.75;;
72053;SDS011;59918;51.280;7.950;2023-12-20T01:08:43;4.47;;;2.83;;
72053;SDS011;59918;51.280;7.950;2023-12-20T01:11:08;4.53;;;3.00;;
72053;SDS011;59918;51.280;7.950;2023-12-20T01:13:33;6.50;;;3.75;;
72053;SDS011;59918;51.280;7.950;2023-12-20T01:15:58;6.22;;;3.95;;
72053;SDS011;59918;51.280;7.950;2023-12-20T01:18:24;6.30;;;4.22;;
72053;SDS011;59918;51.280;7.950;2023-12-20T01:20:49;7.03;;;4.95;;
72053;SDS011;59918;51.280;7.950;2023-12-20T01:23:14;8.10;;;4.53;;
72053;SDS011;59918;51.280;7.950;2023-12-20T01:25:39;6.85;;;3.83;;
72053;SDS011;59918;51.280;7.950;2023-12-20T01:28:05;7.88;;;4.47;;
72053;SDS011;59918;51.280;7.950;2023-12-20T01:30:30;7.18;;;5.05;;
72053;SDS011;59918;51.280;7.950;2023-12-20T01:32:55;12.77;;;5.85;;
72053;SDS011;59918;51.280;7.950;2023-12-20T01:35:20;11.77;;;6.57;;
72053;SDS011;59918;51.280;7.950;2023-12-20T01:37:46;17.77;;;8.13;;
72053;SDS011;59918;51.280;7.950;2023-12-20T01:40:11;14.00;;;7.57;;
72053;SDS011;59918;51.280;7.950;2023-12-20T01:42:37;11.77;;;7.30;;
72053;SDS011;59918;51.280;7.950;2023-12-20T01:45:02;16.27;;;7.45;;
72053;SDS011;59918;51.280;7.950;2023-12-20T01:47:28;17.67;;;7.30;;
72053;SDS011;59918;51.280;7.950;2023-12-20T01:49:53;15.65;;;8.15;;
72053;SDS011;59918;51.280;7.950;2023-12-20T01:52:19;14.63;;;6.95;;
72053;SDS011;59918;51.280;7.950;2023-12-20T01:54:45;15.73;;;6.93;;
72053;SDS011;59918;51.280;7.950;2023-12-20T01:57:12;16.77;;;6.93;;
72053;SDS011;59918;51.280;7.950;2023-12-20T01:59:38;13.70;;;6.50;;
72053;SDS011;59918;51.280;7.950;2023-12-20T02:02:05;13.57;;;5.72;;
72053;SDS011;59918;51.280;7.950;2023-12-20T02:04:30;10.60;;;4.75;;
72053;SDS011;59918;51.280;7.950;2023-12-20T02:06:56;12.68;;;4.78;;
72053;SDS011;59918;51.280;7.950;2023-12-20T02:09:23;14.82;;;6.07;;
72053;SDS011;59918;51.280;7.950;2023-12-20T02:11:49;12.00;;;5.32;;
72053;SDS011;59918;51.280;7.950;2023-12-20T02:14:14;6.65;;;5.15;;
72053;SDS011;59918;51.280;7.950;2023-12-20T02:16:39;9.63;;;4.80;;
72053;SDS011;59918;51.280;7.950;2023-12-20T02:19:05;13.38;;;4.40;;
72053;SDS011;59918;51.280;7.950;2023-12-20T02:21:37;10.05;;;4.97;;
72053;SDS011;59918;51.280;7.950;2023-12-20T02:24:03;13.50;;;4.03;;
72053;SDS011;59918;51.280;7.950;2023-12-20T02:26:28;8.02;;;4.20;;
72053;SDS011;59918;51.280;7.950;2023-12-20T02:28:54;13.30;;;4.38;;
72053;SDS011;59918;51.280;7.950;2023-12-20T02:31:23;13.85;;;4.22;;
72053;SDS011;59918;51.280;7.950;2023-12-20T02:33:48;10.70;;;4.93;;
72053;SDS011;59918;51.280;7.950;2023-12-20T02:36:13;10.07;;;5.25;;
72053;SDS011;59918;51.280;7.950;2023-12-20T02:38:38;17.08;;;5.85;;
72053;SDS011;59918;51.280;7.950;2023-12-20T02:41:04;13.98;;;5.25;;
72053;SDS011;59918;51.280;7.950;2023-12-20T02:43:29;13.23;;;5.25;;
72053;SDS011;59918;51.280;7.950;2023-12-20T02:45:54;16.98;;;5.22;;
72053;SDS011;59918;51.280;7.950;2023-12-20T02:48:19;17.25;;;5.60;;
72053;SDS011;59918;51.280;7.950;2023-12-20T02:50:45;8.85;;;5.03;;
72053;SDS011;59918;51.280;7.950;2023-12-20T02:53:12;13.90;;;5.80;;
72053;SDS011;59918;51.280;7.950;2023-12-20T02:55:37;14.85;;;6.00;;
72053;SDS011;59918;51.280;7.950;2023-12-20T02:58:02;19.83;;;6.70;;
72053;SDS011;59918;51.280;7.950;2023-12-20T03:00:28;14.73;;;5.65;;
72053;SDS011;59918;51.280;7.950;2023-12-20T03:02:53;12.35;;;5.13;;
72053;SDS011;59918;51.280;7.950;2023-12-20T03:05:18;13.23;;;5.50;;
72053;SDS011;59918;51.280;7.950;2023-12-20T03:07:43;13.27;;;5.50;;
72053;SDS011;59918;51.280;7.950;2023-12-20T03:10:09;13.98;;;5.75;;
72053;SDS011;59918;51.280;7.950;2023-12-20T03:12:34;8.43;;;4.90;;
72053;SDS011;59918;51.280;7.950;2023-12-20T03:14:59;8.18;;;4.53;;
72053;SDS011;59918;51.280;7.950;2023-12-20T03:17:24;10.93;;;4.28;;
72053;SDS011;59918;51.280;7.950;2023-12-20T03:19:49;10.63;;;4.03;;
72053;SDS011;59918;51.280;7.950;2023-12-20T03:22:15;13.18;;;3.88;;
72053;SDS011;59918;51.280;7.950;2023-12-20T03:24:40;8.35;;;4.30;;
72053;SDS011;59918;51.280;7.950;2023-12-20T03:27:05;10.55;;;4.10;;
72053;SDS011;59918;51.280;7.950;2023-12-20T03:29:30;7.50;;;4.13;;
72053;SDS011;59918;51.280;7.950;2023-12-20T03:31:56;10.20;;;4.30;;
72053;SDS011;59918;51.280;7.950;2023-12-20T03:34:21;9.40;;;3.90;;
72053;SDS011;59918;51.280;7.950;2023-12-20T03:36:46;6.68;;;3.97;;
72053;SDS011;59918;51.280;7.950;2023-12-20T03:39:11;7.35;;;4.13;;
72053;SDS011;59918;51.280;7.950;2023-12-20T03:41:37;11.35;;;4.15;;
72053;SDS011;59918;51.280;7.950;2023-12-20T03:44:02;10.43;;;4.22;;
72053;SDS011;59918;51.280;7.950;2023-12-20T03:46:27;8.70;;;3.65;;
72053;SDS011;59918;51.280;7.950;2023-12-20T03:48:52;7.65;;;4.07;;
72053;SDS011;59918;51.280;7.950;2023-12-20T03:51:18;10.65;;;4.40;;
72053;SDS011;59918;51.280;7.950;2023-12-20T03:53:43;10.65;;;3.97;;
72053;SDS011;59918;51.280;7.950;2023-12-20T03:56:08;8.45;;;3.50;;
72053;SDS011;59918;51.280;7.950;2023-12-20T03:58:33;10.55;;;3.85;;
72053;SDS011;59918;51.280;7.950;2023-12-20T04:00:59;10.25;;;3.28;;
72053;SDS011;59918;51.280;7.950;2023-12-20T04:03:24;9.35;;;2.90;;
72053;SDS011;59918;51.280;7.950;2023-12-20T04:05:49;13.80;;;2.83;;
72053;SDS011;59918;51.280;7.950;2023-12-20T04:08:14;9.45;;;2.67;;
72053;SDS011;59918;51.280;7.950;2023-12-20T04:10:40;7.30;;;2.38;;
72053;SDS011;59918;51.280;7.950;2023-12-20T04:13:05;9.88;;;3.17;;
72053;SDS011;59918;51.280;7.950;2023-12-20T04:15:30;10.32;;;2.65;;
72053;SDS011;59918;51.280;7.950;2023-12-20T04:17:55;9.63;;;2.58;;
72053;SDS011;59918;51.280;7.950;2023-12-20T04:20:20;6.18;;;2.90;;
72053;SDS011;59918;51.280;7.950;2023-12-20T04:22:46;6.72;;;2.45;;
72053;SDS011;59918;51.280;7.950;2023-12-20T04:25:11;9.43;;;2.25;;
72053;SDS011;59918;51.280;7.950;2023-12-20T04:27:36;10.27;;;2.97;;
72053;SDS011;59918;51.280;7.950;2023-12-20T04:30:02;9.15;;;2.95;;
72053;SDS011;59918;51.280;7.950;2023-12-20T04:32:27;7.20;;;3.17;;
72053;SDS011;59918;51.280;7.950;2023-12-20T04:34:52;6.47;;;3.47;;
72053;SDS011;59918;51.280;7.950;2023-12-20T04:37:18;6.45;;;2.97;;
72053;SDS011;59918;51.280;7.950;2023-12-20T04:39:43;9.75;;;3.13;;
72053;SDS011;59918;51.280;7.950;2023-12-20T04:42:08;9.07;;;2.72;;
72053;SDS011;59918;51.280;7.950;2023-12-20T04:44:33;17.35;;;3.05;;
72053;SDS011;59918;51.280;7.950;2023-12-20T04:46:59;8.40;;;3.15;;
72053;SDS011;59918;51.280;7.950;2023-12-20T04:49:24;11.93;;;3.10;;
72053;SDS011;59918;51.280;7.950;2023-12-20T04:51:49;15.52;;;3.47;;
72053;SDS011;59918;51.280;7.950;2023-12-20T04:54:14;12.57;;;3.53;;
72053;SDS011;59918;51.280;7.950;2023-12-20T04:56:40;16.88;;;3.30;;
72053;SDS011;59918;51.280;7.950;2023-12-20T04:59:05;14.25;;;3.83;;
72053;SDS011;59918;51.280;7.950;2023-12-20T05:01:30;13.95;;;4.55;;
72053;SDS011;59918;51.280;7.950;2023-12-20T05:03:55;13.85;;;4.82;;
72053;SDS011;59918;51.280;7.950;2023-12-20T05:06:21;11.48;;;3.67;;
72053;SDS011;59918;51.280;7.950;2023-12-20T05:08:46;11.48;;;4.53;;
72053;SDS011;59918;51.280;7.950;2023-12-20T05:11:11;22.55;;;4.20;;
72053;SDS011;59918;51.280;7.950;2023-12-20T05:13:36;18.05;;;4.55;;
72053;SDS011;59918;51.280;7.950;2023-12-20T05:16:02;11.18;;;4.38;;
72053;SDS011;59918;51.280;7.950;2023-12-20T05:18:27;17.75;;;5.07;;
72053;SDS011;59918;51.280;7.950;2023-12-20T05:20:55;20.25;;;4.40;;
72053;SDS011;59918;51.280;7.950;2023-12-20T05:23:20;15.82;;;4.22;;
72053;SDS011;59918;51.280;7.950;2023-12-20T05:25:45;14.00;;;4.18;;
72053;SDS011;59918;51.280;7.950;2023-12-20T05:28:10;14.93;;;4.57;;
72053;SDS011;59918;51.280;7.950;2023-12-20T05:30:36;12.95;;;4.40;;
72053;SDS011;59918;51.280;7.950;2023-12-20T05:33:01;18.95;;;4.95;;
72053;SDS011;59918;51.280;7.950;2023-12-20T05:35:26;10.10;;;3.90;;
72053;SDS011;59918;51.280;7.950;2023-12-20T05:37:51;21.50;;;4.88;;
72053;SDS011;59918;51.280;7.950;2023-12-20T05:40:17;17.27;;;5.93;;
72053;SDS011;59918;51.280;7.950;2023-12-20T05:42:42;21.88;;;5.05;;
72053;SDS011;59918;51.280;7.950;2023-12-20T05:45:07;15.32;;;4.25;;
72053;SDS011;59918;51.280;7.950;2023-12-20T05:47:34;10.82;;;4.35;;
72053;SDS011;59918;51.280;7.950;2023-12-20T05:49:59;17.52;;;5.10;;
72053;SDS011;59918;51.280;7.950;2023-12-20T05:52:24;15.73;;;4.47;;
72053;SDS011;59918;51.280;7.950;2023-12-20T05:54:49;14.55;;;4.80;;
72053;SDS011;59918;51.280;7.950;2023-12-20T05:57:15;16.77;;;5.20;;
72053;SDS011;59918;51.280;7.950;2023-12-20T05:59:40;15.93;;;6.22;;
72053;SDS011;59918;51.280;7.950;2023-12-20T06:02:05;13.05;;;5.07;;
72053;SDS011;59918;51.280;7.950;2023-12-20T06:04:31;18.00;;;4.80;;
72053;SDS011;59918;51.280;7.950;2023-12-20T06:06:56;20.45;;;4.82;;
72053;SDS011;59918;51.280;7.950;2023-12-20T06:09:21;10.55;;;4.03;;
72053;SDS011;59918;51.280;7.950;2023-12-20T06:11:47;24.85;;;5.07;;
72053;SDS011;59918;51.280;7.950;2023-12-20T06:14:12;13.60;;;4.72;;
72053;SDS011;59918;51.280;7.950;2023-12-20T06:16:37;19.27;;;4.82;;
72053;SDS011;59918;51.280;7.950;2023-12-20T06:19:03;13.48;;;4.70;;
72053;SDS011;59918;51.280;7.950;2023-12-20T06:21:28;16.77;;;5.10;;
72053;SDS011;59918;51.280;7.950;2023-12-20T06:23:53;16.75;;;5.40;;
72053;SDS011;59918;51.280;7.950;2023-12-20T06:26:18;13.85;;;4.93;;
72053;SDS011;59918;51.280;7.950;2023-12-20T06:28:44;18.30;;;6.65;;
72053;SDS011;59918;51.280;7.950;2023-12-20T06:31:09;31.50;;;7.97;;
72053;SDS011;59918;51.280;7.950;2023-12-20T06:33:34;17.52;;;5.65;;
72053;SDS011;59918;51.280;7.950;2023-12-20T06:36:00;14.60;;;4.47;;
72053;SDS011;59918;51.280;7.950;2023-12-20T06:38:29;17.67;;;4.78;;
72053;SDS011;59918;51.280;7.950;2023-12-20T06:40:54;9.98;;;4.70;;
72053;SDS011;59918;51.280;7.950;2023-12-20T06:43:19;22.10;;;4.80;;
72053;SDS011;59918;51.280;7.950;2023-12-20T06:45:45;17.85;;;4.82;;
72053;SDS011;59918;51.280;7.950;2023-12-20T06:48:10;13.15;;;4.47;;
72053;SDS011;59918;51.280;7.950;2023-12-20T06:50:35;14.40;;;4.25;;
72053;SDS011;59918;51.280;7.950;2023-12-20T06:53:00;17.92;;;4.53;;
72053;SDS011;59918;51.280;7.950;2023-12-20T06:55:26;21.95;;;5.65;;
72053;SDS011;59918;51.280;7.950;2023-12-20T06:57:51;21.42;;;4.57;;
72053;SDS011;59918;51.280;7.950;2023-12-20T07:00:16;16.63;;;5.35;;
72053;SDS011;59918;51.280;7.950;2023-12-20T07:02:43;22.55;;;5.07;;
72053;SDS011;59918;51.280;7.950;2023-12-20T07:05:08;17.30;;;5.53;;
72053;SDS011;59918;51.280;7.950;2023-12-20T07:07:34;17.05;;;4.43;;
72053;SDS011;59918;51.280;7.950;2023-12-20T07:09:59;23.35;;;5.97;;
72053;SDS011;59918;51.280;7.950;2023-12-20T07:12:24;19.77;;;5.72;;
72053;SDS011;59918;51.280;7.950;2023-12-20T07:14:49;23.10;;;5.20;;
72053;SDS011;59918;51.280;7.950;2023-12-20T07:17:15;17.88;;;5.38;;
72053;SDS011;59918;51.280;7.950;2023-12-20T07:19:40;22.10;;;4.90;;
72053;SDS011;59918;51.280;7.950;2023-12-20T07:22:06;13.98;;;4.80;;
72053;SDS011;59918;51.280;7.950;2023-12-20T07:24:32;18.13;;;4.85;;
72053;SDS011;59918;51.280;7.950;2023-12-20T07:26:58;14.57;;;4.50;;
72053;SDS011;59918;51.280;7.950;2023-12-20T07:29:27;13.00;;;4.13;;
72053;SDS011;59918;51.280;7.950;2023-12-20T07:31:52;9.88;;;4.35;;
72053;SDS011;59918;51.280;7.950;2023-12-20T07:34:18;16.95;;;4.57;;
72053;SDS011;59918;51.280;7.950;2023-12-20T07:36:43;21.60;;;4.57;;
72053;SDS011;59918;51.280;7.950;2023-12-20T07:39:08;18.65;;;4.50;;
72053;SDS011;59918;51.280;7.950;2023-12-20T07:41:34;12.98;;;5.03;;
72053;SDS011;59918;51.280;7.950;2023-12-20T07:43:59;12.18;;;4.88;;
72053;SDS011;59918;51.280;7.950;2023-12-20T07:46:26;14.15;;;4.57;;
72053;SDS011;59918;51.280;7.950;2023-12-20T07:48:51;20.38;;;6.38;;
72053;SDS011;59918;51.280;7.950;2023-12-20T07:51:17;16.23;;;5.72;;
72053;SDS011;59918;51.280;7.950;2023-12-20T07:53:45;36.78;;;9.80;;
72053;SDS011;59918;51.280;7.950;2023-12-20T07:56:28;16.02;;;6.70;;
72053;SDS011;59918;51.280;7.950;2023-12-20T07:58:53;15.00;;;6.28;;
72053;SDS011;59918;51.280;7.950;2023-12-20T08:01:19;26.27;;;7.47;;
72053;SDS011;59918;51.280;7.950;2023-12-20T08:03:44;40.40;;;18.85;;
72053;SDS011;59918;51.280;7.950;2023-12-20T08:06:10;44.42;;;19.70;;
72053;SDS011;59918;51.280;7.950;2023-12-20T08:08:35;19.55;;;6.38;;
72053;SDS011;59918;51.280;7.950;2023-12-20T08:11:00;35.47;;;11.27;;
72053;SDS011;59918;51.280;7.950;2023-12-20T08:13:26;22.17;;;6.07;;
72053;SDS011;59918;51.280;7.950;2023-12-20T08:15:52;20.90;;;6.25;;
72053;SDS011;59918;51.280;7.950;2023-12-20T08:18:18;15.93;;;5.90;;
72053;SDS011;59918;51.280;7.950;2023-12-20T08:20:43;16.95;;;6.10;;
72053;SDS011;59918;51.280;7.950;2023-12-20T08:23:08;16.42;;;5.72;;
72053;SDS011;59918;51.280;7.950;2023-12-20T08:25:34;17.70;;;5.35;;
72053;SDS011;59918;51.280;7.950;2023-12-20T08:27:59;24.65;;;6.30;;
72053;SDS011;59918;51.280;7.950;2023-12-20T08:30:24;15.93;;;5.25;;
72053;SDS011;59918;51.280;7.950;2023-12-20T08:32:49;16.10;;;5.25;;
72053;SDS011;59918;51.280;7.950;2023-12-20T08:35:15;15.38;;;5.45;;
72053;SDS011;59918;51.280;7.950;2023-12-20T08:37:40;20.13;;;5.35;;
72053;SDS011;59918;51.280;7.950;2023-12-20T08:40:05;8.48;;;4.93;;
72053;SDS011;59918;51.280;7.950;2023-12-20T08:42:31;16.27;;;4.88;;
72053;SDS011;59918;51.280;7.950;2023-12-20T08:44:57;20.25;;;6.38;;
72053;SDS011;59918;51.280;7.950;2023-12-20T08:47:22;21.88;;;5.47;;
72053;SDS011;59918;51.280;7.950;2023-12-20T08:49:47;14.75;;;5.00;;
72053;SDS011;59918;51.280;7.950;2023-12-20T08:52:13;20.13;;;5.00;;
72053;SDS011;59918;51.280;7.950;2023-12-20T08:54:38;19.42;;;5.63;;
72053;SDS011;59918;51.280;7.950;2023-12-20T08:57:03;9.45;;;4.95;;
72053;SDS011;59918;51.280;7.950;2023-12-20T08:59:29;13.07;;;4.43;;
72053;SDS011;59918;51.280;7.950;2023-12-20T09:01:54;16.33;;;4.10;;
72053;SDS011;59918;51.280;7.950;2023-12-20T09:04:19;13.40;;;4.43;;
72053;SDS011;59918;51.280;7.950;2023-12-20T09:06:45;19.52;;;5.57;;
72053;SDS011;59918;51.280;7.950;2023-12-20T09:09:10;16.17;;;4.90;;
72053;SDS011;59918;51.280;7.950;2023-12-20T09:11:35;20.00;;;4.28;;
72053;SDS011;59918;51.280;7.950;2023-12-20T09:14:01;21.80;;;4.53;;
72053;SDS011;59918;51.280;7.950;2023-12-20T09:16:26;10.20;;;4.15;;
72053;SDS011;59918;51.280;7.950;2023-12-20T09:18:51;13.05;;;4.28;;
72053;SDS011;59918;51.280;7.950;2023-12-20T09:21:16;25.45;;;5.13;;
72053;SDS011;59918;51.280;7.950;2023-12-20T09:23:42;17.60;;;5.20;;
72053;SDS011;59918;51.280;7.950;2023-12-20T09:26:07;16.33;;;4.68;;
72053;SDS011;59918;51.280;7.950;2023-12-20T09:28:32;13.95;;;4.78;;
72053;SDS011;59918;51.280;7.950;2023-12-20T09:30:58;11.45;;;4.60;;
72053;SDS011;59918;51.280;7.950;2023-12-20T09:33:23;14.45;;;4.70;;
72053;SDS011;59918;51.280;7.950;2023-12-20T09:35:48;11.40;;;4.65;;
72053;SDS011;59918;51.280;7.950;2023-12-20T09:38:13;17.05;;;4.88;;
72053;SDS011;59918;51.280;7.950;2023-12-20T09:40:39;11.93;;;4.70;;
72053;SDS011;59918;51.280;7.950;2023-12-20T09:43:14;15.20;;;5.63;;
72053;SDS011;59918;51.280;7.950;2023-12-20T09:45:40;19.15;;;4.72;;
72053;SDS011;59918;51.280;7.950;2023-12-20T09:48:05;22.38;;;5.70;;
72053;SDS011;59918;51.280;7.950;2023-12-20T09:50:32;24.45;;;5.90;;
72053;SDS011;59918;51.280;7.950;2023-12-20T09:52:57;15.18;;;5.05;;
72053;SDS011;59918;51.280;7.950;2023-12-20T09:55:23;14.18;;;5.03;;
72053;SDS011;59918;51.280;7.950;2023-12-20T09:57:49;15.88;;;5.20;;
72053;SDS011;59918;51.280;7.950;2023-12-20T10:00:15;17.23;;;5.18;;
72053;SDS011;59918;51.280;7.950;2023-12-20T10:02:44;11.73;;;4.78;;
72053;SDS011;59918;51.280;7.950;2023-12-20T10:05:15;14.07;;;5.10;;
72053;SDS011;59918;51.280;7.950;2023-12-20T10:07:41;20.05;;;5.28;;
72053;SDS011;59918;51.280;7.950;2023-12-20T10:10:07;11.77;;;5.22;;
72053;SDS011;59918;51.280;7.950;2023-12-20T10:12:32;16.33;;;4.55;;
72053;SDS011;59918;51.280;7.950;2023-12-20T10:14:57;15.23;;;5.18;;
72053;SDS011;59918;51.280;7.950;2023-12-20T10:17:23;14.32;;;5.10;;
72053;SDS011;59918;51.280;7.950;2023-12-20T10:19:48;20.45;;;5.00;;
72053;SDS011;59918;51.280;7.950;2023-12-20T10:22:13;19.40;;;5.32;;
72053;SDS011;59918;51.280;7.950;2023-12-20T10:24:40;14.23;;;4.55;;
72053;SDS011;59918;51.280;7.950;2023-12-20T10:27:06;16.63;;;4.50;;
72053;SDS011;59918;51.280;7.950;2023-12-20T10:29:35;21.13;;;4.90;;
72053;SDS011;59918;51.280;7.950;2023-12-20T10:34:48;19.23;;;5.43;;
72053;SDS011;59918;51.280;7.950;2023-12-20T10:37:14;14.85;;;4.63;;
72053;SDS011;59918;51.280;7.950;2023-12-20T10:39:42;13.05;;;5.78;;
72053;SDS011;59918;51.280;7.950;2023-12-20T10:42:08;14.60;;;4.60;;
72053;SDS011;59918;51.280;7.950;2023-12-20T10:44:36;16.27;;;4.25;;
72053;SDS011;59918;51.280;7.950;2023-12-20T10:47:01;23.20;;;4.97;;
72053;SDS011;59918;51.280;7.950;2023-12-20T10:49:28;14.77;;;4.25;;
72053;SDS011;59918;51.280;7.950;2023-12-20T10:52:01;17.33;;;5.00;;
72053;SDS011;59918;51.280;7.950;2023-12-20T10:54:28;17.17;;;5.00;;
72053;SDS011;59918;51.280;7.950;2023-12-20T10:56:54;18.00;;;4.90;;
72053;SDS011;59918;51.280;7.950;2023-12-20T10:59:20;13.98;;;4.90;;
72053;SDS011;59918;51.280;7.950;2023-12-20T11:01:48;17.08;;;4.45;;
72053;SDS011;59918;51.280;7.950;2023-12-20T11:04:15;21.10;;;5.40;;
72053;SDS011;59918;51.280;7.950;2023-12-20T11:06:57;13.48;;;4.65;;
72053;SDS011;59918;51.280;7.950;2023-12-20T11:09:35;12.38;;;4.28;;
72053;SDS011;59918;51.280;7.950;2023-12-20T11:15:01;18.77;;;4.93;;
72053;SDS011;59918;51.280;7.950;2023-12-20T11:17:27;19.10;;;4.95;;
72053;SDS011;59918;51.280;7.950;2023-12-20T11:22:21;11.15;;;3.95;;
72053;SDS011;59918;51.280;7.950;2023-12-20T11:24:47;14.05;;;4.72;;
72053;SDS011;59918;51.280;7.950;2023-12-20T11:27:13;9.40;;;4.50;;
72053;SDS011;59918;51.280;7.950;2023-12-20T11:29:39;22.88;;;6.93;;
72053;SDS011;59918;51.280;7.950;2023-12-20T11:32:49;17.30;;;5.20;;
72053;SDS011;59918;51.280;7.950;2023-12-20T11:34:53;16.77;;;4.50;;
72053;SDS011;59918;51.280;7.950;2023-12-20T11:37:25;23.60;;;5.15;;
72053;SDS011;59918;51.280;7.950;2023-12-20T11:40:07;10.45;;;5.18;;
72053;SDS011;59918;51.280;7.950;2023-12-20T11:42:37;12.10;;;4.95;;
72053;SDS011;59918;51.280;7.950;2023-12-20T11:45:03;13.80;;;5.40;;
72053;SDS011;59918;51.280;7.950;2023-12-20T11:47:29;16.45;;;5.30;;
72053;SDS011;59918;51.280;7.950;2023-12-20T11:49:55;27.48;;;6.47;;
72053;SDS011;59918;51.280;7.950;2023-12-20T11:52:20;20.88;;;6.18;;
72053;SDS011;59918;51.280;7.950;2023-12-20T11:54:46;17.80;;;4.75;;
72053;SDS011;59918;51.280;7.950;2023-12-20T11:57:11;18.65;;;5.47;;
72053;SDS011;59918;51.280;7.950;2023-12-20T11:59:36;13.27;;;5.68;;
72053;SDS011;59918;51.280;7.950;2023-12-20T12:02:02;16.10;;;5.18;;
72053;SDS011;59918;51.280;7.950;2023-12-20T12:04:27;19.50;;;6.53;;
72053;SDS011;59918;51.280;7.950;2023-12-20T12:06:52;19.40;;;6.43;;
72053;SDS011;59918;51.280;7.950;2023-12-20T12:09:17;16.67;;;5.97;;
72053;SDS011;59918;51.280;7.950;2023-12-20T12:11:43;16.25;;;5.72;;
72053;SDS011;59918;51.280;7.950;2023-12-20T12:14:08;20.05;;;6.53;;
72053;SDS011;59918;51.280;7.950;2023-12-20T12:16:34;20.80;;;6.00;;
72053;SDS011;59918;51.280;7.950;2023-12-20T12:18:59;12.63;;;5.88;;
72053;SDS011;59918;51.280;7.950;2023-12-20T12:21:24;10.60;;;6.03;;
72053;SDS011;59918;51.280;7.950;2023-12-20T12:23:50;12.38;;;5.47;;
72053;SDS011;59918;51.280;7.950;2023-12-20T12:26:15;10.13;;;5.30;;
72053;SDS011;59918;51.280;7.950;2023-12-20T12:28:40;16.13;;;5.78;;
72053;SDS011;59918;51.280;7.950;2023-12-20T12:31:06;11.20;;;5.55;;
72053;SDS011;59918;51.280;7.950;2023-12-20T12:33:32;10.65;;;4.85;;
72053;SDS011;59918;51.280;7.950;2023-12-20T12:35:57;12.85;;;5.95;;
72053;SDS011;59918;51.280;7.950;2023-12-20T12:38:23;14.27;;;5.80;;
72053;SDS011;59918;51.280;7.950;2023-12-20T12:40:49;15.38;;;5.75;;
72053;SDS011;59918;51.280;7.950;2023-12-20T12:43:15;17.02;;;5.32;;
72053;SDS011;59918;51.280;7.950;2023-12-20T12:45:40;12.10;;;5.53;;
72053;SDS011;59918;51.280;7.950;2023-12-20T12:48:05;14.88;;;6.05;;
72053;SDS011;59918;51.280;7.950;2023-12-20T12:50:31;16.10;;;7.95;;
72053;SDS011;59918;51.280;7.950;2023-12-20T12:52:56;17.45;;;6.47;;
72053;SDS011;59918;51.280;7.950;2023-12-20T12:55:24;19.92;;;6.53;;
72053;SDS011;59918;51.280;7.950;2023-12-20T12:57:49;22.52;;;6.82;;
72053;SDS011;59918;51.280;7.950;2023-12-20T13:00:15;13.65;;;7.00;;
72053;SDS011;59918;51.280;7.950;2023-12-20T13:02:40;15.73;;;5.93;;
72053;SDS011;59918;51.280;7.950;2023-12-20T13:05:05;15.15;;;5.60;;
72053;SDS011;59918;51.280;7.950;2023-12-20T13:07:34;17.45;;;6.60;;
72053;SDS011;59918;51.280;7.950;2023-12-20T13:09:59;16.75;;;6.20;;
72053;SDS011;59918;51.280;7.950;2023-12-20T13:12:25;16.98;;;6.72;;
72053;SDS011;59918;51.280;7.950;2023-12-20T13:14:50;18.40;;;6.82;;
72053;SDS011;59918;51.280;7.950;2023-12-20T13:17:15;16.20;;;6.20;;
72053;SDS011;59918;51.280;7.950;2023-12-20T13:19:40;18.73;;;6.70;;
72053;SDS011;59918;51.280;7.950;2023-12-20T13:22:05;17.30;;;6.20;;
72053;SDS011;59918;51.280;7.950;2023-12-20T13:24:31;33.63;;;6.55;;
72053;SDS011;59918;51.280;7.950;2023-12-20T13:26:56;15.02;;;5.88;;
72053;SDS011;59918;51.280;7.950;2023-12-20T13:29:22;17.95;;;6.43;;
72053;SDS011;59918;51.280;7.950;2023-12-20T13:31:47;12.45;;;6.75;;
72053;SDS011;59918;51.280;7.950;2023-12-20T13:34:12;17.60;;;6.70;;
72053;SDS011;59918;51.280;7.950;2023-12-20T13:36:37;13.30;;;6.43;;
72053;SDS011;59918;51.280;7.950;2023-12-20T13:39:03;10.63;;;5.97;;
72053;SDS011;59918;51.280;7.950;2023-12-20T13:41:28;12.20;;;5.88;;
72053;SDS011;59918;51.280;7.950;2023-12-20T13:43:53;6.68;;;4.45;;
72053;SDS011;59918;51.280;7.950;2023-12-20T13:46:19;8.20;;;4.85;;
72053;SDS011;59918;51.280;7.950;2023-12-20T13:48:44;11.60;;;5.10;;
72053;SDS011;59918;51.280;7.950;2023-12-20T13:51:09;16.05;;;8.02;;
72053;SDS011;59918;51.280;7.950;2023-12-20T13:53:34;15.13;;;6.32;;
72053;SDS011;59918;51.280;7.950;2023-12-20T13:56:00;14.15;;;6.00;;
72053;SDS011;59918;51.280;7.950;2023-12-20T13:58:25;14.18;;;5.88;;
72053;SDS011;59918;51.280;7.950;2023-12-20T14:00:51;16.83;;;6.10;;
72053;SDS011;59918;51.280;7.950;2023-12-20T14:03:16;15.52;;;7.32;;
72053;SDS011;59918;51.280;7.950;2023-12-20T14:05:41;12.27;;;5.88;;
72053;SDS011;59918;51.280;7.950;2023-12-20T14:08:06;14.05;;;6.40;;
72053;SDS011;59918;51.280;7.950;2023-12-20T14:10:32;13.40;;;5.93;;
72053;SDS011;59918;51.280;7.950;2023-12-20T14:12:59;11.68;;;5.55;;
72053;SDS011;59918;51.280;7.950;2023-12-20T14:15:25;13.20;;;6.65;;
72053;SDS011;59918;51.280;7.950;2023-12-20T14:17:50;18.50;;;6.80;;
72053;SDS011;59918;51.280;7.950;2023-12-20T14:20:15;14.30;;;6.55;;
72053;SDS011;59918;51.280;7.950;2023-12-20T14:22:40;13.02;;;6.05;;
72053;SDS011;59918;51.280;7.950;2023-12-20T14:25:06;13.75;;;5.88;;
72053;SDS011;59918;51.280;7.950;2023-12-20T14:27:32;10.57;;;5.68;;
72053;SDS011;59918;51.280;7.950;2023-12-20T14:29:57;13.60;;;6.28;;
72053;SDS011;59918;51.280;7.950;2023-12-20T14:32:23;10.30;;;5.43;;
72053;SDS011;59918;51.280;7.950;2023-12-20T14:34:48;5.65;;;4.93;;
72053;SDS011;59918;51.280;7.950;2023-12-20T14:37:16;5.45;;;4.40;;